sensor_id;sensor_type;location;lat;lon;timestamp;P1;durP1;ratioP1;P2;durP2;ratioP2
22107;SDS011;11220;48.812;9.128;2023-05-07T00:00:33;0.50;;;0.50;;
22107;SDS011;11220;48.812;9.128;2023-05-07T00:02:59;0.52;;;0.43;;
22107;SDS011;11220;48.812;9.128;2023-05-07T00:05:24;0.47;;;0.40;;
22107;SDS011;11220;48.812;9.128;2023-05-07T00:07:50;0.40;;;0.40;;
22107;SDS011;11220;48.812;9.128;2023-05-07T00:10:17;0.65;;;0.45;;
22107;SDS011;11220;48.812;9.128;2023-05-07T00:12:43;0.40;;;0.40;;
22107;SDS011;11220;48.812;9.128;2023-05-07T00:15:09;0.32;;;0.32;;
22107;SDS011;11220;48.812;9.128;2023-05-07T00:17:35;0.73;;;0.40;;
22107;SDS011;11220;48.812;9.128;2023-05-07T00:20:01;0.85;;;0.50;;
22107;SDS011;11220;48.812;9.128;2023-05-07T00:22:28;1.23;;;0.50;;
22107;SDS011;11220;48.812;9.128;2023-05-07T00:24:55;0.70;;;0.50;;
22107;SDS011;11220;48.812;9.128;2023-05-07T00:27:21;0.35;;;0.35;;
22107;SDS011;11220;48.812;9.128;2023-05-07T00:29:47;0.40;;;0.40;;
22107;SDS011;11220;48.812;9.128;2023-05-07T00:32:12;0.90;;;0.50;;
22107;SDS011;11220;48.812;9.128;2023-05-07T00:34:38;0.43;;;0.43;;
22107;SDS011;11220;48.812;9.128;2023-05-07T00:37:04;0.40;;;0.40;;
22107;SDS011;11220;48.812;9.128;2023-05-07T00:39:32;0.50;;;0.40;;
22107;SDS011;11220;48.812;9.128;2023-05-07T00:41:58;0.50;;;0.30;;
22107;SDS011;11220;48.812;9.128;2023-05-07T00:44:23;0.43;;;0.43;;
22107;SDS011;11220;48.812;9.128;2023-05-07T00:46:49;0.50;;;0.50;;
22107;SDS011;11220;48.812;9.128;2023-05-07T00:49:15;0.38;;;0.38;;
22107;SDS011;11220;48.812;9.128;2023-05-07T00:51:41;0.50;;;0.40;;
22107;SDS011;11220;48.812;9.128;2023-05-07T00:54:06;0.60;;;0.40;;
22107;SDS011;11220;48.812;9.128;2023-05-07T00:56:34;0.52;;;0.52;;
22107;SDS011;11220;48.812;9.128;2023-05-07T00:59:01;0.40;;;0.32;;
22107;SDS011;11220;48.812;9.128;2023-05-07T01:01:27;0.30;;;0.30;;
22107;SDS011;11220;48.812;9.128;2023-05-07T01:03:53;0.65;;;0.60;;
22107;SDS011;11220;48.812;9.128;2023-05-07T01:06:19;0.30;;;0.30;;
22107;SDS011;11220;48.812;9.128;2023-05-07T01:08:48;0.40;;;0.40;;
22107;SDS011;11220;48.812;9.128;2023-05-07T01:11:15;0.40;;;0.40;;
22107;SDS011;11220;48.812;9.128;2023-05-07T01:13:44;1.20;;;0.50;;
22107;SDS011;11220;48.812;9.128;2023-05-07T01:16:16;0.43;;;0.40;;
22107;SDS011;11220;48.812;9.128;2023-05-07T01:18:42;0.57;;;0.50;;
22107;SDS011;11220;48.812;9.128;2023-05-07T01:21:07;0.60;;;0.50;;
22107;SDS011;11220;48.812;9.128;2023-05-07T01:23:36;0.50;;;0.50;;
22107;SDS011;11220;48.812;9.128;2023-05-07T01:26:02;0.45;;;0.40;;
22107;SDS011;11220;48.812;9.128;2023-05-07T01:28:27;0.57;;;0.50;;
22107;SDS011;11220;48.812;9.128;2023-05-07T01:30:54;0.57;;;0.50;;
22107;SDS011;11220;48.812;9.128;2023-05-07T01:33:23;0.50;;;0.50;;
22107;SDS011;11220;48.812;9.128;2023-05-07T01:35:51;0.43;;;0.43;;
22107;SDS011;11220;48.812;9.128;2023-05-07T01:38:18;0.50;;;0.50;;
22107;SDS011;11220;48.812;9.128;2023-05-07T01:40:45;0.30;;;0.30;;
22107;SDS011;11220;48.812;9.128;2023-05-07T01:43:10;0.40;;;0.40;;
22107;SDS011;11220;48.812;9.128;2023-05-07T01:45:36;0.43;;;0.43;;
22107;SDS011;11220;48.812;9.128;2023-05-07T01:48:03;0.50;;;0.50;;
22107;SDS011;11220;48.812;9.128;2023-05-07T01:50:30;0.40;;;0.35;;
22107;SDS011;11220;48.812;9.128;2023-05-07T01:52:57;0.50;;;0.40;;
22107;SDS011;11220;48.812;9.128;2023-05-07T01:55:22;0.55;;;0.50;;
22107;SDS011;11220;48.812;9.128;2023-05-07T01:57:48;0.30;;;0.30;;
22107;SDS011;11220;48.812;9.128;2023-05-07T02:00:14;0.40;;;0.40;;
22107;SDS011;11220;48.812;9.128;2023-05-07T02:02:40;0.40;;;0.40;;
22107;SDS011;11220;48.812;9.128;2023-05-07T02:05:05;0.57;;;0.50;;
22107;SDS011;11220;48.812;9.128;2023-05-07T02:07:31;1.38;;;0.60;;
22107;SDS011;11220;48.812;9.128;2023-05-07T02:09:57;0.40;;;0.40;;
22107;SDS011;11220;48.812;9.128;2023-05-07T02:12:22;0.68;;;0.43;;
22107;SDS011;11220;48.812;9.128;2023-05-07T02:14:48;0.50;;;0.50;;
22107;SDS011;11220;48.812;9.128;2023-05-07T02:17:14;0.50;;;0.45;;
22107;SDS011;11220;48.812;9.128;2023-05-07T02:19:40;0.40;;;0.40;;
22107;SDS011;11220;48.812;9.128;2023-05-07T02:22:06;0.40;;;0.40;;
22107;SDS011;11220;48.812;9.128;2023-05-07T02:24:32;0.50;;;0.50;;
22107;SDS011;11220;48.812;9.128;2023-05-07T02:26:58;0.50;;;0.50;;
22107;SDS011;11220;48.812;9.128;2023-05-07T02:29:23;0.43;;;0.43;;
22107;SDS011;11220;48.812;9.128;2023-05-07T02:31:49;0.40;;;0.40;;
22107;SDS011;11220;48.812;9.128;2023-05-07T02:34:16;0.30;;;0.30;;
22107;SDS011;11220;48.812;9.128;2023-05-07T02:36:42;0.50;;;0.50;;
22107;SDS011;11220;48.812;9.128;2023-05-07T02:39:07;0.40;;;0.40;;
22107;SDS011;11220;48.812;9.128;2023-05-07T02:41:33;0.47;;;0.40;;
22107;SDS011;11220;48.812;9.128;2023-05-07T02:43:59;0.55;;;0.55;;
22107;SDS011;11220;48.812;9.128;2023-05-07T02:46:24;0.30;;;0.30;;
22107;SDS011;11220;48.812;9.128;2023-05-07T02:48:50;0.40;;;0.40;;
22107;SDS011;11220;48.812;9.128;2023-05-07T02:51:19;0.50;;;0.50;;
22107;SDS011;11220;48.812;9.128;2023-05-07T02:53:46;0.30;;;0.30;;
22107;SDS011;11220;48.812;9.128;2023-05-07T02:56:11;0.40;;;0.40;;
22107;SDS011;11220;48.812;9.128;2023-05-07T02:58:37;0.45;;;0.40;;
22107;SDS011;11220;48.812;9.128;2023-05-07T03:01:04;0.40;;;0.40;;
22107;SDS011;11220;48.812;9.128;2023-05-07T03:03:30;0.35;;;0.35;;
22107;SDS011;11220;48.812;9.128;2023-05-07T03:05:56;0.45;;;0.45;;
22107;SDS011;11220;48.812;9.128;2023-05-07T03:08:21;0.50;;;0.50;;
22107;SDS011;11220;48.812;9.128;2023-05-07T03:10:47;0.40;;;0.40;;
22107;SDS011;11220;48.812;9.128;2023-05-07T03:13:12;0.40;;;0.40;;
22107;SDS011;11220;48.812;9.128;2023-05-07T03:15:38;0.30;;;0.30;;
22107;SDS011;11220;48.812;9.128;2023-05-07T03:18:03;0.43;;;0.40;;
22107;SDS011;11220;48.812;9.128;2023-05-07T03:20:29;0.45;;;0.40;;
22107;SDS011;11220;48.812;9.128;2023-05-07T03:22:55;0.93;;;0.47;;
22107;SDS011;11220;48.812;9.128;2023-05-07T03:25:20;0.63;;;0.40;;
22107;SDS011;11220;48.812;9.128;2023-05-07T03:27:46;0.40;;;0.40;;
22107;SDS011;11220;48.812;9.128;2023-05-07T03:30:11;0.40;;;0.40;;
22107;SDS011;11220;48.812;9.128;2023-05-07T03:32:37;0.50;;;0.40;;
22107;SDS011;11220;48.812;9.128;2023-05-07T03:35:03;0.50;;;0.40;;
22107;SDS011;11220;48.812;9.128;2023-05-07T03:37:29;0.43;;;0.40;;
22107;SDS011;11220;48.812;9.128;2023-05-07T03:39:55;0.85;;;0.70;;
22107;SDS011;11220;48.812;9.128;2023-05-07T03:42:20;0.30;;;0.30;;
22107;SDS011;11220;48.812;9.128;2023-05-07T03:44:46;0.40;;;0.40;;
22107;SDS011;11220;48.812;9.128;2023-05-07T03:47:12;0.50;;;0.50;;
22107;SDS011;11220;48.812;9.128;2023-05-07T03:49:38;0.40;;;0.40;;
22107;SDS011;11220;48.812;9.128;2023-05-07T03:52:04;0.40;;;0.40;;
22107;SDS011;11220;48.812;9.128;2023-05-07T03:54:30;0.52;;;0.50;;
22107;SDS011;11220;48.812;9.128;2023-05-07T03:56:56;0.45;;;0.40;;
22107;SDS011;11220;48.812;9.128;2023-05-07T03:59:21;0.50;;;0.40;;
22107;SDS011;11220;48.812;9.128;2023-05-07T04:01:47;0.45;;;0.43;;
22107;SDS011;11220;48.812;9.128;2023-05-07T04:04:13;0.40;;;0.40;;
22107;SDS011;11220;48.812;9.128;2023-05-07T04:06:39;0.43;;;0.43;;
22107;SDS011;11220;48.812;9.128;2023-05-07T04:09:05;0.50;;;0.50;;
22107;SDS011;11220;48.812;9.128;2023-05-07T04:11:31;0.60;;;0.50;;
22107;SDS011;11220;48.812;9.128;2023-05-07T04:13:57;0.40;;;0.40;;
22107;SDS011;11220;48.812;9.128;2023-05-07T04:16:22;0.40;;;0.40;;
22107;SDS011;11220;48.812;9.128;2023-05-07T04:18:48;0.45;;;0.43;;
22107;SDS011;11220;48.812;9.128;2023-05-07T04:21:17;0.50;;;0.40;;
22107;SDS011;11220;48.812;9.128;2023-05-07T04:23:44;0.73;;;0.43;;
22107;SDS011;11220;48.812;9.128;2023-05-07T04:26:10;0.60;;;0.50;;
22107;SDS011;11220;48.812;9.128;2023-05-07T04:28:36;0.68;;;0.40;;
22107;SDS011;11220;48.812;9.128;2023-05-07T04:31:01;0.52;;;0.50;;
22107;SDS011;11220;48.812;9.128;2023-05-07T04:33:27;0.40;;;0.40;;
22107;SDS011;11220;48.812;9.128;2023-05-07T04:35:53;0.40;;;0.40;;
22107;SDS011;11220;48.812;9.128;2023-05-07T04:38:18;0.47;;;0.45;;
22107;SDS011;11220;48.812;9.128;2023-05-07T04:40:44;0.50;;;0.50;;
22107;SDS011;11220;48.812;9.128;2023-05-07T04:43:10;0.50;;;0.50;;
22107;SDS011;11220;48.812;9.128;2023-05-07T04:45:36;0.40;;;0.40;;
22107;SDS011;11220;48.812;9.128;2023-05-07T04:48:01;0.52;;;0.45;;
22107;SDS011;11220;48.812;9.128;2023-05-07T04:50:27;0.50;;;0.50;;
22107;SDS011;11220;48.812;9.128;2023-05-07T04:52:53;0.50;;;0.50;;
22107;SDS011;11220;48.812;9.128;2023-05-07T04:55:18;0.40;;;0.40;;
22107;SDS011;11220;48.812;9.128;2023-05-07T04:57:44;0.50;;;0.50;;
22107;SDS011;11220;48.812;9.128;2023-05-07T05:00:10;0.50;;;0.50;;
22107;SDS011;11220;48.812;9.128;2023-05-07T05:02:39;0.50;;;0.50;;
22107;SDS011;11220;48.812;9.128;2023-05-07T05:05:05;0.40;;;0.40;;
22107;SDS011;11220;48.812;9.128;2023-05-07T05:07:32;0.70;;;0.50;;
22107;SDS011;11220;48.812;9.128;2023-05-07T05:09:57;0.50;;;0.50;;
22107;SDS011;11220;48.812;9.128;2023-05-07T05:12:23;0.40;;;0.40;;
22107;SDS011;11220;48.812;9.128;2023-05-07T05:14:49;0.40;;;0.40;;
22107;SDS011;11220;48.812;9.128;2023-05-07T05:17:14;0.40;;;0.40;;
22107;SDS011;11220;48.812;9.128;2023-05-07T05:19:40;0.40;;;0.40;;
22107;SDS011;11220;48.812;9.128;2023-05-07T05:22:05;0.47;;;0.40;;
22107;SDS011;11220;48.812;9.128;2023-05-07T05:24:31;0.50;;;0.50;;
22107;SDS011;11220;48.812;9.128;2023-05-07T05:26:57;0.43;;;0.40;;
22107;SDS011;11220;48.812;9.128;2023-05-07T05:29:24;0.40;;;0.30;;
22107;SDS011;11220;48.812;9.128;2023-05-07T05:31:50;0.32;;;0.32;;
22107;SDS011;11220;48.812;9.128;2023-05-07T05:34:15;0.45;;;0.45;;
22107;SDS011;11220;48.812;9.128;2023-05-07T05:36:42;0.43;;;0.40;;
22107;SDS011;11220;48.812;9.128;2023-05-07T05:39:08;0.30;;;0.30;;
22107;SDS011;11220;48.812;9.128;2023-05-07T05:41:34;0.32;;;0.32;;
22107;SDS011;11220;48.812;9.128;2023-05-07T05:43:59;0.30;;;0.30;;
22107;SDS011;11220;48.812;9.128;2023-05-07T05:46:25;0.32;;;0.32;;
22107;SDS011;11220;48.812;9.128;2023-05-07T05:48:50;0.32;;;0.32;;
22107;SDS011;11220;48.812;9.128;2023-05-07T05:51:16;0.63;;;0.40;;
22107;SDS011;11220;48.812;9.128;2023-05-07T05:53:42;0.40;;;0.40;;
22107;SDS011;11220;48.812;9.128;2023-05-07T05:56:07;0.30;;;0.30;;
22107;SDS011;11220;48.812;9.128;2023-05-07T05:58:33;0.32;;;0.30;;
22107;SDS011;11220;48.812;9.128;2023-05-07T06:00:58;0.50;;;0.40;;
22107;SDS011;11220;48.812;9.128;2023-05-07T06:03:24;0.40;;;0.40;;
22107;SDS011;11220;48.812;9.128;2023-05-07T06:05:50;0.63;;;0.50;;
22107;SDS011;11220;48.812;9.128;2023-05-07T06:08:15;0.50;;;0.50;;
22107;SDS011;11220;48.812;9.128;2023-05-07T06:10:42;0.40;;;0.40;;
22107;SDS011;11220;48.812;9.128;2023-05-07T06:13:07;0.40;;;0.40;;
22107;SDS011;11220;48.812;9.128;2023-05-07T06:15:33;0.30;;;0.30;;
22107;SDS011;11220;48.812;9.128;2023-05-07T06:17:58;0.30;;;0.30;;
22107;SDS011;11220;48.812;9.128;2023-05-07T06:20:24;0.20;;;0.20;;
22107;SDS011;11220;48.812;9.128;2023-05-07T06:22:49;0.43;;;0.30;;
22107;SDS011;11220;48.812;9.128;2023-05-07T06:25:15;0.50;;;0.30;;
22107;SDS011;11220;48.812;9.128;2023-05-07T06:27:40;0.45;;;0.40;;
22107;SDS011;11220;48.812;9.128;2023-05-07T06:30:06;0.30;;;0.30;;
22107;SDS011;11220;48.812;9.128;2023-05-07T06:32:33;0.50;;;0.30;;
22107;SDS011;11220;48.812;9.128;2023-05-07T06:34:58;0.50;;;0.40;;
22107;SDS011;11220;48.812;9.128;2023-05-07T06:37:24;0.40;;;0.40;;
22107;SDS011;11220;48.812;9.128;2023-05-07T06:39:50;0.40;;;0.40;;
22107;SDS011;11220;48.812;9.128;2023-05-07T06:42:15;0.43;;;0.43;;
22107;SDS011;11220;48.812;9.128;2023-05-07T06:44:41;0.60;;;0.60;;
22107;SDS011;11220;48.812;9.128;2023-05-07T06:47:06;0.47;;;0.43;;
22107;SDS011;11220;48.812;9.128;2023-05-07T06:49:32;0.50;;;0.50;;
22107;SDS011;11220;48.812;9.128;2023-05-07T06:51:58;0.30;;;0.30;;
22107;SDS011;11220;48.812;9.128;2023-05-07T06:54:23;0.68;;;0.68;;
22107;SDS011;11220;48.812;9.128;2023-05-07T06:56:49;0.60;;;0.60;;
22107;SDS011;11220;48.812;9.128;2023-05-07T06:59:15;0.63;;;0.63;;
22107;SDS011;11220;48.812;9.128;2023-05-07T07:01:40;0.40;;;0.40;;
22107;SDS011;11220;48.812;9.128;2023-05-07T07:04:06;0.60;;;0.60;;
22107;SDS011;11220;48.812;9.128;2023-05-07T07:06:31;0.50;;;0.50;;
22107;SDS011;11220;48.812;9.128;2023-05-07T07:08:58;0.60;;;0.60;;
22107;SDS011;11220;48.812;9.128;2023-05-07T07:11:24;0.68;;;0.52;;
22107;SDS011;11220;48.812;9.128;2023-05-07T07:13:49;0.50;;;0.50;;
22107;SDS011;11220;48.812;9.128;2023-05-07T07:16:15;0.50;;;0.50;;
22107;SDS011;11220;48.812;9.128;2023-05-07T07:18:41;0.57;;;0.57;;
22107;SDS011;11220;48.812;9.128;2023-05-07T07:21:07;0.52;;;0.52;;
22107;SDS011;11220;48.812;9.128;2023-05-07T07:23:32;0.60;;;0.50;;
22107;SDS011;11220;48.812;9.128;2023-05-07T07:25:58;0.40;;;0.40;;
22107;SDS011;11220;48.812;9.128;2023-05-07T07:28:24;0.60;;;0.60;;
22107;SDS011;11220;48.812;9.128;2023-05-07T07:30:49;0.50;;;0.47;;
22107;SDS011;11220;48.812;9.128;2023-05-07T07:33:15;1.17;;;0.70;;
22107;SDS011;11220;48.812;9.128;2023-05-07T07:35:40;0.60;;;0.50;;
22107;SDS011;11220;48.812;9.128;2023-05-07T07:38:06;0.60;;;0.60;;
22107;SDS011;11220;48.812;9.128;2023-05-07T07:40:33;0.77;;;0.60;;
22107;SDS011;11220;48.812;9.128;2023-05-07T07:42:59;0.60;;;0.60;;
22107;SDS011;11220;48.812;9.128;2023-05-07T07:45:26;0.73;;;0.73;;
22107;SDS011;11220;48.812;9.128;2023-05-07T07:47:51;0.60;;;0.60;;
22107;SDS011;11220;48.812;9.128;2023-05-07T07:50:17;0.70;;;0.60;;
22107;SDS011;11220;48.812;9.128;2023-05-07T07:52:43;0.73;;;0.73;;
22107;SDS011;11220;48.812;9.128;2023-05-07T07:55:08;0.77;;;0.70;;
22107;SDS011;11220;48.812;9.128;2023-05-07T07:57:34;1.00;;;0.68;;
22107;SDS011;11220;48.812;9.128;2023-05-07T08:00:00;0.60;;;0.60;;
22107;SDS011;11220;48.812;9.128;2023-05-07T08:02:26;0.70;;;0.60;;
22107;SDS011;11220;48.812;9.128;2023-05-07T08:04:51;1.30;;;0.77;;
22107;SDS011;11220;48.812;9.128;2023-05-07T08:07:17;0.50;;;0.50;;
22107;SDS011;11220;48.812;9.128;2023-05-07T08:09:45;0.70;;;0.70;;
22107;SDS011;11220;48.812;9.128;2023-05-07T08:12:11;1.25;;;0.60;;
22107;SDS011;11220;48.812;9.128;2023-05-07T08:14:37;0.55;;;0.50;;
22107;SDS011;11220;48.812;9.128;2023-05-07T08:17:02;0.80;;;0.63;;
22107;SDS011;11220;48.812;9.128;2023-05-07T08:19:28;0.63;;;0.63;;
22107;SDS011;11220;48.812;9.128;2023-05-07T08:21:53;0.90;;;0.80;;
22107;SDS011;11220;48.812;9.128;2023-05-07T08:24:20;0.70;;;0.70;;
22107;SDS011;11220;48.812;9.128;2023-05-07T08:26:46;0.70;;;0.60;;
22107;SDS011;11220;48.812;9.128;2023-05-07T08:29:12;0.90;;;0.60;;
22107;SDS011;11220;48.812;9.128;2023-05-07T08:31:37;0.77;;;0.77;;
22107;SDS011;11220;48.812;9.128;2023-05-07T08:34:06;0.80;;;0.80;;
22107;SDS011;11220;48.812;9.128;2023-05-07T08:36:31;0.80;;;0.80;;
22107;SDS011;11220;48.812;9.128;2023-05-07T08:38:57;1.08;;;0.98;;
22107;SDS011;11220;48.812;9.128;2023-05-07T08:41:24;0.80;;;0.65;;
22107;SDS011;11220;48.812;9.128;2023-05-07T08:43:50;0.82;;;0.82;;
22107;SDS011;11220;48.812;9.128;2023-05-07T08:46:19;0.80;;;0.80;;
22107;SDS011;11220;48.812;9.128;2023-05-07T08:48:49;1.00;;;1.00;;
22107;SDS011;11220;48.812;9.128;2023-05-07T08:51:16;1.40;;;1.30;;
22107;SDS011;11220;48.812;9.128;2023-05-07T08:53:46;1.30;;;1.20;;
22107;SDS011;11220;48.812;9.128;2023-05-07T08:56:13;1.13;;;1.02;;
22107;SDS011;11220;48.812;9.128;2023-05-07T08:58:40;0.95;;;0.90;;
22107;SDS011;11220;48.812;9.128;2023-05-07T09:01:08;1.10;;;1.00;;
22107;SDS011;11220;48.812;9.128;2023-05-07T09:03:36;0.98;;;0.88;;
22107;SDS011;11220;48.812;9.128;2023-05-07T09:06:03;0.93;;;0.80;;
22107;SDS011;11220;48.812;9.128;2023-05-07T09:08:29;1.35;;;0.90;;
22107;SDS011;11220;48.812;9.128;2023-05-07T09:10:57;0.80;;;0.80;;
22107;SDS011;11220;48.812;9.128;2023-05-07T09:13:22;1.40;;;1.00;;
22107;SDS011;11220;48.812;9.128;2023-05-07T09:15:48;0.70;;;0.70;;
22107;SDS011;11220;48.812;9.128;2023-05-07T09:18:15;1.05;;;0.90;;
22107;SDS011;11220;48.812;9.128;2023-05-07T09:21:57;1.10;;;0.80;;
22107;SDS011;11220;48.812;9.128;2023-05-07T09:38:15;1.10;;;1.00;;
22107;SDS011;11220;48.812;9.128;2023-05-07T09:40:44;0.70;;;0.70;;
22107;SDS011;11220;48.812;9.128;2023-05-07T09:43:10;1.52;;;0.80;;
22107;SDS011;11220;48.812;9.128;2023-05-07T09:45:36;0.93;;;0.93;;
22107;SDS011;11220;48.812;9.128;2023-05-07T09:48:03;1.00;;;0.90;;
22107;SDS011;11220;48.812;9.128;2023-05-07T09:50:32;0.93;;;0.88;;
22107;SDS011;11220;48.812;9.128;2023-05-07T09:53:01;1.67;;;0.63;;
22107;SDS011;11220;48.812;9.128;2023-05-07T09:55:29;0.75;;;0.75;;
22107;SDS011;11220;48.812;9.128;2023-05-07T09:57:55;0.85;;;0.85;;
22107;SDS011;11220;48.812;9.128;2023-05-07T10:00:21;0.73;;;0.73;;
22107;SDS011;11220;48.812;9.128;2023-05-07T10:02:48;1.00;;;0.90;;
22107;SDS011;11220;48.812;9.128;2023-05-07T10:05:16;0.73;;;0.70;;
22107;SDS011;11220;48.812;9.128;2023-05-07T10:07:46;0.80;;;0.80;;
22107;SDS011;11220;48.812;9.128;2023-05-07T10:10:13;0.75;;;0.65;;
22107;SDS011;11220;48.812;9.128;2023-05-07T10:12:40;0.70;;;0.70;;
22107;SDS011;11220;48.812;9.128;2023-05-07T10:15:06;0.82;;;0.82;;
22107;SDS011;11220;48.812;9.128;2023-05-07T10:17:36;0.80;;;0.80;;
22107;SDS011;11220;48.812;9.128;2023-05-07T10:20:06;1.20;;;1.08;;
22107;SDS011;11220;48.812;9.128;2023-05-07T10:22:41;0.68;;;0.68;;
22107;SDS011;11220;48.812;9.128;2023-05-07T10:25:18;1.00;;;0.90;;
22107;SDS011;11220;48.812;9.128;2023-05-07T10:27:49;0.80;;;0.80;;
22107;SDS011;11220;48.812;9.128;2023-05-07T10:30:22;0.88;;;0.88;;
22107;SDS011;11220;48.812;9.128;2023-05-07T10:33:01;0.80;;;0.80;;
22107;SDS011;11220;48.812;9.128;2023-05-07T10:35:31;0.70;;;0.70;;
22107;SDS011;11220;48.812;9.128;2023-05-07T10:38:02;0.80;;;0.80;;
22107;SDS011;11220;48.812;9.128;2023-05-07T10:40:30;0.90;;;0.90;;
22107;SDS011;11220;48.812;9.128;2023-05-07T10:42:57;0.90;;;0.77;;
22107;SDS011;11220;48.812;9.128;2023-05-07T10:45:27;0.75;;;0.75;;
22107;SDS011;11220;48.812;9.128;2023-05-07T10:50:36;0.70;;;0.70;;
22107;SDS011;11220;48.812;9.128;2023-05-07T10:53:20;1.10;;;1.00;;
22107;SDS011;11220;48.812;9.128;2023-05-07T10:55:49;0.75;;;0.75;;
22107;SDS011;11220;48.812;9.128;2023-05-07T11:01:01;0.70;;;0.70;;
22107;SDS011;11220;48.812;9.128;2023-05-07T11:03:27;0.80;;;0.80;;
22107;SDS011;11220;48.812;9.128;2023-05-07T11:06:10;0.77;;;0.77;;
22107;SDS011;11220;48.812;9.128;2023-05-07T11:11:18;1.05;;;0.95;;
22107;SDS011;11220;48.812;9.128;2023-05-07T11:13:47;0.80;;;0.80;;
22107;SDS011;11220;48.812;9.128;2023-05-07T11:18:50;0.70;;;0.70;;
22107;SDS011;11220;48.812;9.128;2023-05-07T11:24:05;0.80;;;0.80;;
22107;SDS011;11220;48.812;9.128;2023-05-07T11:26:42;0.70;;;0.70;;
22107;SDS011;11220;48.812;9.128;2023-05-07T11:29:15;0.90;;;0.90;;
22107;SDS011;11220;48.812;9.128;2023-05-07T11:31:42;0.70;;;0.70;;
22107;SDS011;11220;48.812;9.128;2023-05-07T11:34:08;0.82;;;0.82;;
22107;SDS011;11220;48.812;9.128;2023-05-07T11:36:34;0.70;;;0.70;;
22107;SDS011;11220;48.812;9.128;2023-05-07T11:39:05;0.73;;;0.73;;
22107;SDS011;11220;48.812;9.128;2023-05-07T11:41:47;0.80;;;0.80;;
22107;SDS011;11220;48.812;9.128;2023-05-07T11:44:13;0.98;;;0.80;;
22107;SDS011;11220;48.812;9.128;2023-05-07T11:46:42;0.77;;;0.77;;
22107;SDS011;11220;48.812;9.128;2023-05-07T11:49:09;0.70;;;0.70;;
22107;SDS011;11220;48.812;9.128;2023-05-07T11:51:40;0.77;;;0.70;;
22107;SDS011;11220;48.812;9.128;2023-05-07T11:54:07;0.85;;;0.73;;
22107;SDS011;11220;48.812;9.128;2023-05-07T11:56:36;0.70;;;0.70;;
22107;SDS011;11220;48.812;9.128;2023-05-07T11:59:02;0.80;;;0.80;;
22107;SDS011;11220;48.812;9.128;2023-05-07T12:01:28;0.85;;;0.85;;
22107;SDS011;11220;48.812;9.128;2023-05-07T12:03:53;0.80;;;0.80;;
22107;SDS011;11220;48.812;9.128;2023-05-07T12:06:19;0.80;;;0.80;;
22107;SDS011;11220;48.812;9.128;2023-05-07T12:08:45;0.75;;;0.75;;
22107;SDS011;11220;48.812;9.128;2023-05-07T12:11:29;0.80;;;0.80;;
22107;SDS011;11220;48.812;9.128;2023-05-07T12:13:55;0.90;;;0.90;;
22107;SDS011;11220;48.812;9.128;2023-05-07T12:16:20;1.17;;;0.82;;
22107;SDS011;11220;48.812;9.128;2023-05-07T12:18:47;1.00;;;0.90;;
22107;SDS011;11220;48.812;9.128;2023-05-07T12:21:13;0.75;;;0.75;;
22107;SDS011;11220;48.812;9.128;2023-05-07T12:23:39;0.93;;;0.80;;
22107;SDS011;11220;48.812;9.128;2023-05-07T12:26:05;1.00;;;0.80;;
22107;SDS011;11220;48.812;9.128;2023-05-07T12:28:31;1.05;;;0.82;;
22107;SDS011;11220;48.812;9.128;2023-05-07T12:31:02;1.00;;;0.90;;
22107;SDS011;11220;48.812;9.128;2023-05-07T12:33:27;0.80;;;0.80;;
22107;SDS011;11220;48.812;9.128;2023-05-07T12:35:54;1.25;;;0.90;;
22107;SDS011;11220;48.812;9.128;2023-05-07T12:38:20;0.68;;;0.68;;
22107;SDS011;11220;48.812;9.128;2023-05-07T12:40:48;0.90;;;0.90;;
22107;SDS011;11220;48.812;9.128;2023-05-07T12:45:42;0.98;;;0.90;;
22107;SDS011;11220;48.812;9.128;2023-05-07T12:48:11;0.80;;;0.80;;
22107;SDS011;11220;48.812;9.128;2023-05-07T12:50:37;0.80;;;0.80;;
22107;SDS011;11220;48.812;9.128;2023-05-07T12:53:04;0.73;;;0.73;;
22107;SDS011;11220;48.812;9.128;2023-05-07T12:55:31;0.80;;;0.80;;
22107;SDS011;11220;48.812;9.128;2023-05-07T12:58:00;0.90;;;0.68;;
22107;SDS011;11220;48.812;9.128;2023-05-07T13:00:38;1.00;;;0.77;;
22107;SDS011;11220;48.812;9.128;2023-05-07T13:03:04;1.00;;;0.90;;
22107;SDS011;11220;48.812;9.128;2023-05-07T13:05:30;0.75;;;0.70;;
22107;SDS011;11220;48.812;9.128;2023-05-07T13:07:56;0.80;;;0.80;;
22107;SDS011;11220;48.812;9.128;2023-05-07T13:10:22;0.85;;;0.70;;
22107;SDS011;11220;48.812;9.128;2023-05-07T13:12:49;0.63;;;0.63;;
22107;SDS011;11220;48.812;9.128;2023-05-07T13:15:14;0.70;;;0.70;;
22107;SDS011;11220;48.812;9.128;2023-05-07T13:21:02;0.80;;;0.80;;
22107;SDS011;11220;48.812;9.128;2023-05-07T13:23:28;0.82;;;0.60;;
22107;SDS011;11220;48.812;9.128;2023-05-07T13:25:54;0.80;;;0.80;;
22107;SDS011;11220;48.812;9.128;2023-05-07T13:28:20;1.00;;;0.90;;
22107;SDS011;11220;48.812;9.128;2023-05-07T13:30:47;0.65;;;0.60;;
22107;SDS011;11220;48.812;9.128;2023-05-07T13:33:13;0.68;;;0.68;;
22107;SDS011;11220;48.812;9.128;2023-05-07T13:35:38;0.63;;;0.63;;
22107;SDS011;11220;48.812;9.128;2023-05-07T13:38:04;0.70;;;0.70;;
22107;SDS011;11220;48.812;9.128;2023-05-07T13:40:30;0.80;;;0.63;;
22107;SDS011;11220;48.812;9.128;2023-05-07T13:42:59;0.88;;;0.77;;
22107;SDS011;11220;48.812;9.128;2023-05-07T13:45:27;0.93;;;0.77;;
22107;SDS011;11220;48.812;9.128;2023-05-07T13:47:54;0.60;;;0.60;;
22107;SDS011;11220;48.812;9.128;2023-05-07T13:50:21;0.50;;;0.50;;
22107;SDS011;11220;48.812;9.128;2023-05-07T13:52:47;0.80;;;0.80;;
22107;SDS011;11220;48.812;9.128;2023-05-07T13:55:18;1.80;;;0.80;;
22107;SDS011;11220;48.812;9.128;2023-05-07T13:57:48;0.73;;;0.70;;
22107;SDS011;11220;48.812;9.128;2023-05-07T14:00:20;1.35;;;0.90;;
22107;SDS011;11220;48.812;9.128;2023-05-07T14:02:46;0.80;;;0.70;;
22107;SDS011;11220;48.812;9.128;2023-05-07T14:05:12;0.70;;;0.65;;
22107;SDS011;11220;48.812;9.128;2023-05-07T14:07:38;0.98;;;0.70;;
22107;SDS011;11220;48.812;9.128;2023-05-07T14:10:04;0.90;;;0.90;;
22107;SDS011;11220;48.812;9.128;2023-05-07T14:12:31;0.65;;;0.65;;
22107;SDS011;11220;48.812;9.128;2023-05-07T14:14:57;0.90;;;0.68;;
22107;SDS011;11220;48.812;9.128;2023-05-07T14:17:23;0.75;;;0.60;;
22107;SDS011;11220;48.812;9.128;2023-05-07T14:19:51;0.95;;;0.70;;
22107;SDS011;11220;48.812;9.128;2023-05-07T14:22:19;0.80;;;0.77;;
22107;SDS011;11220;48.812;9.128;2023-05-07T14:24:47;0.68;;;0.68;;
22107;SDS011;11220;48.812;9.128;2023-05-07T14:27:14;0.80;;;0.52;;
22107;SDS011;11220;48.812;9.128;2023-05-07T14:29:40;0.90;;;0.70;;
22107;SDS011;11220;48.812;9.128;2023-05-07T14:32:05;0.77;;;0.70;;
22107;SDS011;11220;48.812;9.128;2023-05-07T14:34:31;0.70;;;0.70;;
22107;SDS011;11220;48.812;9.128;2023-05-07T14:36:57;1.20;;;0.70;;
22107;SDS011;11220;48.812;9.128;2023-05-07T14:39:24;0.80;;;0.80;;
22107;SDS011;11220;48.812;9.128;2023-05-07T14:41:50;1.25;;;0.82;;
22107;SDS011;11220;48.812;9.128;2023-05-07T14:44:16;0.65;;;0.65;;
22107;SDS011;11220;48.812;9.128;2023-05-07T14:46:42;0.60;;;0.60;;
22107;SDS011;11220;48.812;9.128;2023-05-07T14:49:08;0.70;;;0.63;;
22107;SDS011;11220;48.812;9.128;2023-05-07T14:51:41;1.33;;;0.70;;
22107;SDS011;11220;48.812;9.128;2023-05-07T14:54:07;0.80;;;0.80;;
22107;SDS011;11220;48.812;9.128;2023-05-07T14:56:32;0.80;;;0.73;;
22107;SDS011;11220;48.812;9.128;2023-05-07T14:59:00;0.60;;;0.60;;
22107;SDS011;11220;48.812;9.128;2023-05-07T15:01:25;0.52;;;0.52;;
22107;SDS011;11220;48.812;9.128;2023-05-07T15:03:54;0.73;;;0.70;;
22107;SDS011;11220;48.812;9.128;2023-05-07T15:06:20;0.60;;;0.60;;
22107;SDS011;11220;48.812;9.128;2023-05-07T15:08:46;0.85;;;0.52;;
22107;SDS011;11220;48.812;9.128;2023-05-07T15:11:13;0.60;;;0.60;;
22107;SDS011;11220;48.812;9.128;2023-05-07T15:13:39;0.77;;;0.75;;
22107;SDS011;11220;48.812;9.128;2023-05-07T15:16:04;0.80;;;0.70;;
22107;SDS011;11220;48.812;9.128;2023-05-07T15:18:30;0.60;;;0.60;;